SCCI/PUQ METAR and TAF weather

Enter ICAO airport designator
Station Type Date Time Source
SCCI METAR 2019/02/17 16:00 UTC NOAA

SCCI 171600Z 25017KT 9999 FEW040 BKN200 10/M00 Q0997 NOSIG


Station Type Date Time Source
SCCI Decoded METAR 2019/02/17 16:00 UTC NOAA

Punta Arenas, Chile (SCCI) 53-00S 070-51W 33M
Feb 17, 2019 - 11:00 AM EST / 2019.02.17 1600 UTC
Wind: from the WSW (250 degrees) at 20 MPH (17 KT):0
Visibility: greater than 7 mile(s):0
Sky conditions: mostly cloudy
Temperature: 50 F (10 C)
Dew Point: 32 F (0 C)
Relative Humidity: 49%
Pressure (altimeter): 29.44 in. Hg (0997 hPa)
ob: SCCI 171600Z 25017KT 9999 FEW040 BKN200 10/M00 Q0997 NOSIG
cycle: 16

Station Type Date Time Source
SCCI TAF 2019/02/17 12:00 UTC NOAA

TAF SCCI 171037Z 1712/1812 28008KT 9999 FEW045 TN03/1810Z TX11/1719Z
TEMPO 1720/1800 9000 -RA SCT022 BKN035
BECMG 1810/1812 27017KT


Example: see airport list